sensor_id;sensor_type;location;lat;lon;timestamp;P1;durP1;ratioP1;P2;durP2;ratioP2
16957;SDS011;8595;52.542;11.974;2022-10-16T00:01:15;2.40;;;2.20;;
16957;SDS011;8595;52.542;11.974;2022-10-16T00:03:44;3.20;;;2.85;;
16957;SDS011;8595;52.542;11.974;2022-10-16T00:06:12;4.70;;;2.88;;
16957;SDS011;8595;52.542;11.974;2022-10-16T00:08:40;3.25;;;2.30;;
16957;SDS011;8595;52.542;11.974;2022-10-16T00:11:09;2.47;;;2.28;;
16957;SDS011;8595;52.542;11.974;2022-10-16T00:13:38;3.05;;;2.75;;
16957;SDS011;8595;52.542;11.974;2022-10-16T00:16:06;3.55;;;2.90;;
16957;SDS011;8595;52.542;11.974;2022-10-16T00:18:34;2.72;;;2.53;;
16957;SDS011;8595;52.542;11.974;2022-10-16T00:21:04;2.78;;;2.50;;
16957;SDS011;8595;52.542;11.974;2022-10-16T00:23:33;5.88;;;3.50;;
16957;SDS011;8595;52.542;11.974;2022-10-16T00:26:02;4.97;;;3.47;;
16957;SDS011;8595;52.542;11.974;2022-10-16T00:28:31;3.20;;;2.85;;
16957;SDS011;8595;52.542;11.974;2022-10-16T00:30:58;3.08;;;2.15;;
16957;SDS011;8595;52.542;11.974;2022-10-16T00:33:28;5.25;;;2.40;;
16957;SDS011;8595;52.542;11.974;2022-10-16T00:35:57;3.35;;;1.80;;
16957;SDS011;8595;52.542;11.974;2022-10-16T00:38:25;3.25;;;1.90;;
16957;SDS011;8595;52.542;11.974;2022-10-16T00:40:52;1.88;;;1.70;;
16957;SDS011;8595;52.542;11.974;2022-10-16T00:43:35;4.47;;;1.80;;
16957;SDS011;8595;52.542;11.974;2022-10-16T00:46:05;1.98;;;1.80;;
16957;SDS011;8595;52.542;11.974;2022-10-16T00:48:37;2.38;;;2.17;;
16957;SDS011;8595;52.542;11.974;2022-10-16T00:51:04;3.58;;;2.10;;
16957;SDS011;8595;52.542;11.974;2022-10-16T00:53:34;2.35;;;1.98;;
16957;SDS011;8595;52.542;11.974;2022-10-16T00:56:01;4.85;;;1.65;;
16957;SDS011;8595;52.542;11.974;2022-10-16T00:58:29;4.63;;;2.00;;
16957;SDS011;8595;52.542;11.974;2022-10-16T01:00:56;2.53;;;1.90;;
16957;SDS011;8595;52.542;11.974;2022-10-16T01:03:23;2.58;;;1.70;;
16957;SDS011;8595;52.542;11.974;2022-10-16T01:05:54;3.97;;;1.90;;
16957;SDS011;8595;52.542;11.974;2022-10-16T01:08:37;3.08;;;2.08;;
16957;SDS011;8595;52.542;11.974;2022-10-16T01:11:13;1.92;;;1.80;;
16957;SDS011;8595;52.542;11.974;2022-10-16T01:13:50;2.17;;;1.90;;
16957;SDS011;8595;52.542;11.974;2022-10-16T01:16:21;2.38;;;1.80;;
16957;SDS011;8595;52.542;11.974;2022-10-16T01:18:57;2.38;;;1.80;;
16957;SDS011;8595;52.542;11.974;2022-10-16T01:21:27;1.85;;;1.58;;
16957;SDS011;8595;52.542;11.974;2022-10-16T01:24:00;2.10;;;1.80;;
16957;SDS011;8595;52.542;11.974;2022-10-16T01:26:36;1.90;;;1.58;;
16957;SDS011;8595;52.542;11.974;2022-10-16T01:29:16;1.55;;;1.40;;
16957;SDS011;8595;52.542;11.974;2022-10-16T01:31:47;2.40;;;1.60;;
16957;SDS011;8595;52.542;11.974;2022-10-16T01:34:20;5.10;;;1.60;;
16957;SDS011;8595;52.542;11.974;2022-10-16T01:36:49;3.10;;;1.70;;
16957;SDS011;8595;52.542;11.974;2022-10-16T01:39:20;2.33;;;1.70;;
16957;SDS011;8595;52.542;11.974;2022-10-16T01:41:52;2.75;;;1.67;;
16957;SDS011;8595;52.542;11.974;2022-10-16T01:44:26;4.35;;;2.10;;
16957;SDS011;8595;52.542;11.974;2022-10-16T01:46:56;1.70;;;1.60;;
16957;SDS011;8595;52.542;11.974;2022-10-16T01:49:25;4.10;;;2.20;;
16957;SDS011;8595;52.542;11.974;2022-10-16T01:51:56;3.13;;;2.00;;
16957;SDS011;8595;52.542;11.974;2022-10-16T01:54:26;2.17;;;1.45;;
16957;SDS011;8595;52.542;11.974;2022-10-16T01:56:55;1.83;;;1.60;;
16957;SDS011;8595;52.542;11.974;2022-10-16T01:59:23;8.07;;;2.30;;
16957;SDS011;8595;52.542;11.974;2022-10-16T02:01:59;2.25;;;1.70;;
16957;SDS011;8595;52.542;11.974;2022-10-16T02:04:31;1.77;;;1.60;;
16957;SDS011;8595;52.542;11.974;2022-10-16T02:07:00;4.00;;;1.98;;
16957;SDS011;8595;52.542;11.974;2022-10-16T02:09:27;1.98;;;1.75;;
16957;SDS011;8595;52.542;11.974;2022-10-16T02:11:55;1.70;;;1.60;;
16957;SDS011;8595;52.542;11.974;2022-10-16T02:14:28;1.80;;;1.70;;
16957;SDS011;8595;52.542;11.974;2022-10-16T02:16:55;2.20;;;1.88;;
16957;SDS011;8595;52.542;11.974;2022-10-16T02:19:22;2.20;;;2.00;;
16957;SDS011;8595;52.542;11.974;2022-10-16T02:21:49;2.05;;;1.80;;
16957;SDS011;8595;52.542;11.974;2022-10-16T02:24:21;2.25;;;1.58;;
16957;SDS011;8595;52.542;11.974;2022-10-16T02:26:57;2.20;;;2.00;;
16957;SDS011;8595;52.542;11.974;2022-10-16T02:29:31;2.35;;;2.10;;
16957;SDS011;8595;52.542;11.974;2022-10-16T02:32:03;2.33;;;1.90;;
16957;SDS011;8595;52.542;11.974;2022-10-16T02:34:32;2.20;;;2.00;;
16957;SDS011;8595;52.542;11.974;2022-10-16T02:37:00;2.10;;;1.90;;
16957;SDS011;8595;52.542;11.974;2022-10-16T02:39:30;1.80;;;1.70;;
16957;SDS011;8595;52.542;11.974;2022-10-16T02:41:57;2.33;;;2.13;;
16957;SDS011;8595;52.542;11.974;2022-10-16T02:44:24;5.65;;;2.63;;
16957;SDS011;8595;52.542;11.974;2022-10-16T02:46:52;4.30;;;2.40;;
16957;SDS011;8595;52.542;11.974;2022-10-16T02:49:19;2.75;;;1.95;;
16957;SDS011;8595;52.542;11.974;2022-10-16T02:51:46;2.78;;;2.22;;
16957;SDS011;8595;52.542;11.974;2022-10-16T02:54:12;2.60;;;2.40;;
16957;SDS011;8595;52.542;11.974;2022-10-16T02:56:39;2.03;;;1.92;;
16957;SDS011;8595;52.542;11.974;2022-10-16T02:59:06;2.13;;;1.92;;
16957;SDS011;8595;52.542;11.974;2022-10-16T03:01:34;2.58;;;2.30;;
16957;SDS011;8595;52.542;11.974;2022-10-16T03:04:03;4.22;;;2.45;;
16957;SDS011;8595;52.542;11.974;2022-10-16T03:06:30;2.25;;;2.05;;
16957;SDS011;8595;52.542;11.974;2022-10-16T03:08:57;2.60;;;2.00;;
16957;SDS011;8595;52.542;11.974;2022-10-16T03:11:23;3.30;;;3.00;;
16957;SDS011;8595;52.542;11.974;2022-10-16T03:13:51;2.65;;;2.45;;
16957;SDS011;8595;52.542;11.974;2022-10-16T03:16:18;3.20;;;2.60;;
16957;SDS011;8595;52.542;11.974;2022-10-16T03:18:47;3.13;;;2.80;;
16957;SDS011;8595;52.542;11.974;2022-10-16T03:21:15;2.72;;;2.53;;
16957;SDS011;8595;52.542;11.974;2022-10-16T03:23:42;3.65;;;2.72;;
16957;SDS011;8595;52.542;11.974;2022-10-16T03:26:09;3.55;;;2.85;;
16957;SDS011;8595;52.542;11.974;2022-10-16T03:28:36;2.80;;;2.60;;
16957;SDS011;8595;52.542;11.974;2022-10-16T03:31:03;2.97;;;2.72;;
16957;SDS011;8595;52.542;11.974;2022-10-16T03:33:29;2.58;;;2.20;;
16957;SDS011;8595;52.542;11.974;2022-10-16T03:35:57;4.28;;;3.30;;
16957;SDS011;8595;52.542;11.974;2022-10-16T03:38:25;4.18;;;3.38;;
16957;SDS011;8595;52.542;11.974;2022-10-16T03:40:52;3.22;;;2.92;;
16957;SDS011;8595;52.542;11.974;2022-10-16T03:43:19;4.95;;;3.25;;
16957;SDS011;8595;52.542;11.974;2022-10-16T03:45:46;3.03;;;2.80;;
16957;SDS011;8595;52.542;11.974;2022-10-16T03:48:13;3.53;;;3.08;;
16957;SDS011;8595;52.542;11.974;2022-10-16T03:50:40;3.60;;;2.90;;
16957;SDS011;8595;52.542;11.974;2022-10-16T03:53:07;3.20;;;3.00;;
16957;SDS011;8595;52.542;11.974;2022-10-16T03:55:35;3.58;;;3.28;;
16957;SDS011;8595;52.542;11.974;2022-10-16T03:58:02;3.58;;;2.88;;
16957;SDS011;8595;52.542;11.974;2022-10-16T04:00:29;3.25;;;3.05;;
16957;SDS011;8595;52.542;11.974;2022-10-16T04:02:56;3.55;;;3.25;;
16957;SDS011;8595;52.542;11.974;2022-10-16T04:05:23;4.13;;;3.05;;
16957;SDS011;8595;52.542;11.974;2022-10-16T04:07:49;3.70;;;3.40;;
16957;SDS011;8595;52.542;11.974;2022-10-16T04:10:16;3.30;;;3.00;;
16957;SDS011;8595;52.542;11.974;2022-10-16T04:12:45;3.22;;;2.92;;
16957;SDS011;8595;52.542;11.974;2022-10-16T04:15:12;3.00;;;2.70;;
16957;SDS011;8595;52.542;11.974;2022-10-16T04:17:39;5.97;;;4.60;;
16957;SDS011;8595;52.542;11.974;2022-10-16T04:20:06;5.20;;;4.80;;
16957;SDS011;8595;52.542;11.974;2022-10-16T04:22:33;8.52;;;7.72;;
16957;SDS011;8595;52.542;11.974;2022-10-16T04:25:00;8.27;;;7.47;;
16957;SDS011;8595;52.542;11.974;2022-10-16T04:27:27;7.25;;;6.00;;
16957;SDS011;8595;52.542;11.974;2022-10-16T04:29:57;4.05;;;3.60;;
16957;SDS011;8595;52.542;11.974;2022-10-16T04:32:25;6.57;;;4.57;;
16957;SDS011;8595;52.542;11.974;2022-10-16T04:34:52;4.50;;;4.07;;
16957;SDS011;8595;52.542;11.974;2022-10-16T04:37:19;5.32;;;4.10;;
16957;SDS011;8595;52.542;11.974;2022-10-16T04:39:50;4.63;;;4.22;;
16957;SDS011;8595;52.542;11.974;2022-10-16T04:42:16;4.03;;;3.65;;
16957;SDS011;8595;52.542;11.974;2022-10-16T04:44:43;4.20;;;3.63;;
16957;SDS011;8595;52.542;11.974;2022-10-16T04:47:11;4.50;;;3.97;;
16957;SDS011;8595;52.542;11.974;2022-10-16T04:49:39;6.65;;;4.47;;
16957;SDS011;8595;52.542;11.974;2022-10-16T04:52:05;4.10;;;3.70;;
16957;SDS011;8595;52.542;11.974;2022-10-16T04:54:34;3.42;;;3.13;;
16957;SDS011;8595;52.542;11.974;2022-10-16T04:57:00;4.10;;;3.80;;
16957;SDS011;8595;52.542;11.974;2022-10-16T04:59:27;5.07;;;4.03;;
16957;SDS011;8595;52.542;11.974;2022-10-16T05:01:54;7.32;;;3.63;;
16957;SDS011;8595;52.542;11.974;2022-10-16T05:04:22;4.30;;;3.90;;
16957;SDS011;8595;52.542;11.974;2022-10-16T05:06:49;7.38;;;3.95;;
16957;SDS011;8595;52.542;11.974;2022-10-16T05:09:16;5.63;;;3.30;;
16957;SDS011;8595;52.542;11.974;2022-10-16T05:11:43;3.90;;;3.60;;
16957;SDS011;8595;52.542;11.974;2022-10-16T05:14:10;6.10;;;4.25;;
16957;SDS011;8595;52.542;11.974;2022-10-16T05:16:36;3.80;;;3.47;;
16957;SDS011;8595;52.542;11.974;2022-10-16T05:19:03;7.30;;;5.00;;
16957;SDS011;8595;52.542;11.974;2022-10-16T05:21:32;3.65;;;3.25;;
16957;SDS011;8595;52.542;11.974;2022-10-16T05:23:58;4.18;;;3.75;;
16957;SDS011;8595;52.542;11.974;2022-10-16T05:26:25;4.65;;;4.10;;
16957;SDS011;8595;52.542;11.974;2022-10-16T05:28:52;4.57;;;4.18;;
16957;SDS011;8595;52.542;11.974;2022-10-16T05:31:18;4.82;;;3.72;;
16957;SDS011;8595;52.542;11.974;2022-10-16T05:33:45;8.55;;;5.32;;
16957;SDS011;8595;52.542;11.974;2022-10-16T05:36:12;5.30;;;4.40;;
16957;SDS011;8595;52.542;11.974;2022-10-16T05:38:40;4.78;;;4.00;;
16957;SDS011;8595;52.542;11.974;2022-10-16T05:41:07;4.88;;;4.35;;
16957;SDS011;8595;52.542;11.974;2022-10-16T05:43:34;4.63;;;4.20;;
16957;SDS011;8595;52.542;11.974;2022-10-16T05:46:01;5.13;;;4.03;;
16957;SDS011;8595;52.542;11.974;2022-10-16T05:48:30;7.55;;;4.32;;
16957;SDS011;8595;52.542;11.974;2022-10-16T05:50:58;4.15;;;3.75;;
16957;SDS011;8595;52.542;11.974;2022-10-16T05:53:26;6.03;;;4.63;;
16957;SDS011;8595;52.542;11.974;2022-10-16T05:55:55;5.18;;;4.68;;
16957;SDS011;8595;52.542;11.974;2022-10-16T05:58:23;4.90;;;4.30;;
16957;SDS011;8595;52.542;11.974;2022-10-16T06:00:54;5.47;;;4.70;;
16957;SDS011;8595;52.542;11.974;2022-10-16T06:03:21;6.13;;;5.40;;
16957;SDS011;8595;52.542;11.974;2022-10-16T06:05:48;5.25;;;4.75;;
16957;SDS011;8595;52.542;11.974;2022-10-16T06:08:15;6.55;;;4.85;;
16957;SDS011;8595;52.542;11.974;2022-10-16T06:10:43;14.13;;;9.18;;
16957;SDS011;8595;52.542;11.974;2022-10-16T06:13:11;9.50;;;7.57;;
16957;SDS011;8595;52.542;11.974;2022-10-16T06:15:39;14.55;;;7.65;;
16957;SDS011;8595;52.542;11.974;2022-10-16T06:18:07;7.10;;;6.35;;
16957;SDS011;8595;52.542;11.974;2022-10-16T06:20:35;5.43;;;4.93;;
16957;SDS011;8595;52.542;11.974;2022-10-16T06:23:02;6.38;;;5.57;;
16957;SDS011;8595;52.542;11.974;2022-10-16T06:25:29;6.80;;;5.60;;
16957;SDS011;8595;52.542;11.974;2022-10-16T06:27:56;5.97;;;5.38;;
16957;SDS011;8595;52.542;11.974;2022-10-16T06:30:24;6.55;;;4.55;;
16957;SDS011;8595;52.542;11.974;2022-10-16T06:32:51;4.70;;;4.30;;
16957;SDS011;8595;52.542;11.974;2022-10-16T06:35:18;5.88;;;4.90;;
16957;SDS011;8595;52.542;11.974;2022-10-16T06:37:44;6.28;;;4.80;;
16957;SDS011;8595;52.542;11.974;2022-10-16T06:40:11;4.72;;;4.25;;
16957;SDS011;8595;52.542;11.974;2022-10-16T06:42:39;7.63;;;4.75;;
16957;SDS011;8595;52.542;11.974;2022-10-16T06:45:06;5.15;;;4.65;;
16957;SDS011;8595;52.542;11.974;2022-10-16T06:47:35;7.72;;;5.30;;
16957;SDS011;8595;52.542;11.974;2022-10-16T06:50:02;4.90;;;4.40;;
16957;SDS011;8595;52.542;11.974;2022-10-16T06:52:31;5.20;;;4.70;;
16957;SDS011;8595;52.542;11.974;2022-10-16T06:54:58;8.27;;;6.50;;
16957;SDS011;8595;52.542;11.974;2022-10-16T06:57:25;6.60;;;4.20;;
16957;SDS011;8595;52.542;11.974;2022-10-16T06:59:52;7.10;;;4.90;;
16957;SDS011;8595;52.542;11.974;2022-10-16T07:02:19;10.00;;;6.60;;
16957;SDS011;8595;52.542;11.974;2022-10-16T07:04:47;10.95;;;7.13;;
16957;SDS011;8595;52.542;11.974;2022-10-16T07:07:14;11.65;;;6.68;;
16957;SDS011;8595;52.542;11.974;2022-10-16T07:09:40;9.43;;;6.07;;
16957;SDS011;8595;52.542;11.974;2022-10-16T07:12:07;6.13;;;4.82;;
16957;SDS011;8595;52.542;11.974;2022-10-16T07:14:34;6.63;;;5.85;;
16957;SDS011;8595;52.542;11.974;2022-10-16T07:17:01;8.55;;;6.53;;
16957;SDS011;8595;52.542;11.974;2022-10-16T07:19:28;10.05;;;6.60;;
16957;SDS011;8595;52.542;11.974;2022-10-16T07:21:56;10.30;;;7.78;;
16957;SDS011;8595;52.542;11.974;2022-10-16T07:24:23;9.15;;;7.50;;
16957;SDS011;8595;52.542;11.974;2022-10-16T07:26:50;9.30;;;8.35;;
16957;SDS011;8595;52.542;11.974;2022-10-16T07:29:17;7.90;;;7.10;;
16957;SDS011;8595;52.542;11.974;2022-10-16T07:31:46;7.05;;;5.82;;
16957;SDS011;8595;52.542;11.974;2022-10-16T07:34:15;5.15;;;4.38;;
16957;SDS011;8595;52.542;11.974;2022-10-16T07:36:43;7.72;;;5.35;;
16957;SDS011;8595;52.542;11.974;2022-10-16T07:39:12;4.88;;;4.38;;
16957;SDS011;8595;52.542;11.974;2022-10-16T07:41:39;5.18;;;4.68;;
16957;SDS011;8595;52.542;11.974;2022-10-16T07:44:05;6.05;;;4.07;;
16957;SDS011;8595;52.542;11.974;2022-10-16T07:46:33;6.22;;;4.97;;
16957;SDS011;8595;52.542;11.974;2022-10-16T07:49:00;4.72;;;4.22;;
16957;SDS011;8595;52.542;11.974;2022-10-16T07:51:27;4.72;;;4.32;;
16957;SDS011;8595;52.542;11.974;2022-10-16T07:53:54;4.78;;;4.38;;
16957;SDS011;8595;52.542;11.974;2022-10-16T07:56:22;4.50;;;4.13;;
16957;SDS011;8595;52.542;11.974;2022-10-16T07:58:50;4.25;;;3.85;;
16957;SDS011;8595;52.542;11.974;2022-10-16T08:01:17;4.93;;;4.15;;
16957;SDS011;8595;52.542;11.974;2022-10-16T08:03:45;4.82;;;3.72;;
16957;SDS011;8595;52.542;11.974;2022-10-16T08:06:13;5.07;;;3.42;;
16957;SDS011;8595;52.542;11.974;2022-10-16T08:08:40;3.65;;;3.35;;
16957;SDS011;8595;52.542;11.974;2022-10-16T08:11:07;3.53;;;3.22;;
16957;SDS011;8595;52.542;11.974;2022-10-16T08:13:35;4.35;;;3.95;;
16957;SDS011;8595;52.542;11.974;2022-10-16T08:16:02;4.05;;;3.65;;
16957;SDS011;8595;52.542;11.974;2022-10-16T08:18:32;4.18;;;3.17;;
16957;SDS011;8595;52.542;11.974;2022-10-16T08:21:00;5.30;;;3.28;;
16957;SDS011;8595;52.542;11.974;2022-10-16T08:23:27;2.70;;;2.50;;
16957;SDS011;8595;52.542;11.974;2022-10-16T08:25:54;4.25;;;3.10;;
16957;SDS011;8595;52.542;11.974;2022-10-16T08:28:22;2.85;;;2.38;;
16957;SDS011;8595;52.542;11.974;2022-10-16T08:30:51;3.85;;;3.17;;
16957;SDS011;8595;52.542;11.974;2022-10-16T08:33:17;3.70;;;2.58;;
16957;SDS011;8595;52.542;11.974;2022-10-16T08:35:49;4.10;;;2.20;;
16957;SDS011;8595;52.542;11.974;2022-10-16T08:38:17;4.32;;;2.45;;
16957;SDS011;8595;52.542;11.974;2022-10-16T08:40:44;1.67;;;1.58;;
16957;SDS011;8595;52.542;11.974;2022-10-16T08:43:16;2.25;;;2.00;;
16957;SDS011;8595;52.542;11.974;2022-10-16T08:46:06;9.50;;;6.60;;
16957;SDS011;8595;52.542;11.974;2022-10-16T08:48:47;2.88;;;1.88;;
16957;SDS011;8595;52.542;11.974;2022-10-16T08:51:18;3.42;;;2.03;;
16957;SDS011;8595;52.542;11.974;2022-10-16T08:53:49;4.13;;;2.20;;
16957;SDS011;8595;52.542;11.974;2022-10-16T08:56:20;2.17;;;1.98;;
16957;SDS011;8595;52.542;11.974;2022-10-16T08:58:47;2.67;;;2.30;;
16957;SDS011;8595;52.542;11.974;2022-10-16T09:01:17;2.58;;;1.80;;
16957;SDS011;8595;52.542;11.974;2022-10-16T09:06:54;4.82;;;2.00;;
16957;SDS011;8595;52.542;11.974;2022-10-16T09:09:33;2.97;;;2.05;;
16957;SDS011;8595;52.542;11.974;2022-10-16T09:12:12;2.33;;;1.77;;
16957;SDS011;8595;52.542;11.974;2022-10-16T09:14:47;2.90;;;1.60;;
16957;SDS011;8595;52.542;11.974;2022-10-16T09:17:32;2.58;;;1.55;;
16957;SDS011;8595;52.542;11.974;2022-10-16T09:20:16;1.92;;;1.70;;
16957;SDS011;8595;52.542;11.974;2022-10-16T09:22:51;1.65;;;1.55;;
16957;SDS011;8595;52.542;11.974;2022-10-16T09:25:21;4.40;;;1.95;;
16957;SDS011;8595;52.542;11.974;2022-10-16T09:27:48;2.28;;;2.05;;
16957;SDS011;8595;52.542;11.974;2022-10-16T09:30:20;1.75;;;1.65;;
16957;SDS011;8595;52.542;11.974;2022-10-16T09:32:50;3.83;;;1.80;;
16957;SDS011;8595;52.542;11.974;2022-10-16T09:35:19;1.95;;;1.48;;
16957;SDS011;8595;52.542;11.974;2022-10-16T09:37:49;3.20;;;1.63;;
16957;SDS011;8595;52.542;11.974;2022-10-16T09:40:24;1.50;;;1.27;;
16957;SDS011;8595;52.542;11.974;2022-10-16T09:42:54;1.83;;;1.20;;
16957;SDS011;8595;52.542;11.974;2022-10-16T09:45:24;1.25;;;1.05;;
16957;SDS011;8595;52.542;11.974;2022-10-16T09:47:53;3.92;;;1.58;;
16957;SDS011;8595;52.542;11.974;2022-10-16T09:50:20;5.43;;;1.50;;
16957;SDS011;8595;52.542;11.974;2022-10-16T09:52:51;2.03;;;1.63;;
16957;SDS011;8595;52.542;11.974;2022-10-16T09:55:30;3.58;;;1.70;;
16957;SDS011;8595;52.542;11.974;2022-10-16T09:57:57;7.65;;;1.90;;
16957;SDS011;8595;52.542;11.974;2022-10-16T10:00:24;1.60;;;1.50;;
16957;SDS011;8595;52.542;11.974;2022-10-16T10:02:53;3.05;;;1.95;;
16957;SDS011;8595;52.542;11.974;2022-10-16T10:05:21;2.97;;;1.95;;
16957;SDS011;8595;52.542;11.974;2022-10-16T10:07:54;5.07;;;1.90;;
16957;SDS011;8595;52.542;11.974;2022-10-16T10:10:23;2.63;;;2.20;;
16957;SDS011;8595;52.542;11.974;2022-10-16T10:12:52;3.25;;;2.05;;
16957;SDS011;8595;52.542;11.974;2022-10-16T10:15:20;5.13;;;2.20;;
16957;SDS011;8595;52.542;11.974;2022-10-16T10:17:50;3.45;;;2.20;;
16957;SDS011;8595;52.542;11.974;2022-10-16T10:20:25;3.35;;;2.00;;
16957;SDS011;8595;52.542;11.974;2022-10-16T10:22:54;2.85;;;2.20;;
16957;SDS011;8595;52.542;11.974;2022-10-16T10:25:24;3.17;;;1.98;;
16957;SDS011;8595;52.542;11.974;2022-10-16T10:31:03;2.63;;;0.95;;
16957;SDS011;8595;52.542;11.974;2022-10-16T10:33:39;4.15;;;1.48;;
16957;SDS011;8595;52.542;11.974;2022-10-16T10:36:22;3.75;;;2.25;;
16957;SDS011;8595;52.542;11.974;2022-10-16T10:38:54;3.40;;;1.40;;
16957;SDS011;8595;52.542;11.974;2022-10-16T10:41:27;2.38;;;1.25;;
16957;SDS011;8595;52.542;11.974;2022-10-16T10:44:11;3.28;;;1.42;;
16957;SDS011;8595;52.542;11.974;2022-10-16T10:46:49;1.00;;;0.90;;
16957;SDS011;8595;52.542;11.974;2022-10-16T10:49:22;3.95;;;2.17;;
16957;SDS011;8595;52.542;11.974;2022-10-16T10:52:10;4.53;;;2.05;;
16957;SDS011;8595;52.542;11.974;2022-10-16T10:54:50;2.10;;;1.33;;
16957;SDS011;8595;52.542;11.974;2022-10-16T10:57:29;1.55;;;1.20;;
16957;SDS011;8595;52.542;11.974;2022-10-16T11:00:10;2.20;;;1.45;;
16957;SDS011;8595;52.542;11.974;2022-10-16T11:02:45;1.17;;;0.95;;
16957;SDS011;8595;52.542;11.974;2022-10-16T11:05:21;2.70;;;1.60;;
16957;SDS011;8595;52.542;11.974;2022-10-16T11:07:59;3.80;;;2.28;;
16957;SDS011;8595;52.542;11.974;2022-10-16T11:10:29;2.40;;;1.73;;
16957;SDS011;8595;52.542;11.974;2022-10-16T11:13:03;2.75;;;1.30;;
16957;SDS011;8595;52.542;11.974;2022-10-16T11:15:41;1.33;;;0.95;;
16957;SDS011;8595;52.542;11.974;2022-10-16T11:18:11;0.95;;;0.85;;
16957;SDS011;8595;52.542;11.974;2022-10-16T11:20:45;2.08;;;1.20;;
16957;SDS011;8595;52.542;11.974;2022-10-16T11:23:18;2.25;;;1.40;;
16957;SDS011;8595;52.542;11.974;2022-10-16T11:25:51;3.45;;;1.52;;
16957;SDS011;8595;52.542;11.974;2022-10-16T11:28:20;2.38;;;1.95;;
16957;SDS011;8595;52.542;11.974;2022-10-16T11:30:52;4.35;;;1.33;;
16957;SDS011;8595;52.542;11.974;2022-10-16T11:33:24;4.97;;;1.10;;
16957;SDS011;8595;52.542;11.974;2022-10-16T11:35:59;1.48;;;1.15;;
16957;SDS011;8595;52.542;11.974;2022-10-16T11:38:33;3.97;;;1.25;;
16957;SDS011;8595;52.542;11.974;2022-10-16T11:41:10;2.30;;;0.93;;
16957;SDS011;8595;52.542;11.974;2022-10-16T11:43:46;3.33;;;1.10;;
16957;SDS011;8595;52.542;11.974;2022-10-16T11:46:19;2.20;;;1.42;;
16957;SDS011;8595;52.542;11.974;2022-10-16T11:48:49;2.10;;;1.00;;
16957;SDS011;8595;52.542;11.974;2022-10-16T11:51:21;0.85;;;0.80;;
16957;SDS011;8595;52.542;11.974;2022-10-16T11:53:57;2.90;;;0.70;;
16957;SDS011;8595;52.542;11.974;2022-10-16T11:56:28;1.23;;;0.60;;
16957;SDS011;8595;52.542;11.974;2022-10-16T11:58:58;3.13;;;0.93;;
16957;SDS011;8595;52.542;11.974;2022-10-16T12:01:31;1.08;;;0.98;;
16957;SDS011;8595;52.542;11.974;2022-10-16T12:04:15;1.35;;;0.80;;
16957;SDS011;8595;52.542;11.974;2022-10-16T12:06:49;1.90;;;0.80;;
16957;SDS011;8595;52.542;11.974;2022-10-16T12:09:21;1.58;;;0.88;;
16957;SDS011;8595;52.542;11.974;2022-10-16T12:11:51;1.67;;;1.02;;
16957;SDS011;8595;52.542;11.974;2022-10-16T12:14:20;3.25;;;1.25;;
16957;SDS011;8595;52.542;11.974;2022-10-16T12:16:59;1.85;;;0.80;;
16957;SDS011;8595;52.542;11.974;2022-10-16T12:19:27;3.42;;;1.20;;
16957;SDS011;8595;52.542;11.974;2022-10-16T12:21:57;2.47;;;1.20;;
16957;SDS011;8595;52.542;11.974;2022-10-16T12:24:32;1.50;;;1.20;;
16957;SDS011;8595;52.542;11.974;2022-10-16T12:27:02;1.00;;;0.90;;
16957;SDS011;8595;52.542;11.974;2022-10-16T12:29:32;2.25;;;1.00;;
16957;SDS011;8595;52.542;11.974;2022-10-16T12:32:02;2.28;;;0.98;;
16957;SDS011;8595;52.542;11.974;2022-10-16T12:34:32;1.05;;;0.90;;
16957;SDS011;8595;52.542;11.974;2022-10-16T12:37:12;1.90;;;0.85;;
16957;SDS011;8595;52.542;11.974;2022-10-16T12:39:42;5.35;;;1.00;;
16957;SDS011;8595;52.542;11.974;2022-10-16T12:42:23;2.42;;;0.73;;
16957;SDS011;8595;52.542;11.974;2022-10-16T12:44:59;1.10;;;1.00;;
16957;SDS011;8595;52.542;11.974;2022-10-16T12:47:35;2.58;;;1.30;;
16957;SDS011;8595;52.542;11.974;2022-10-16T12:52:53;2.05;;;0.90;;
16957;SDS011;8595;52.542;11.974;2022-10-16T12:55:21;1.33;;;0.75;;
16957;SDS011;8595;52.542;11.974;2022-10-16T13:00:43;1.90;;;1.05;;
16957;SDS011;8595;52.542;11.974;2022-10-16T13:03:20;2.22;;;0.90;;
16957;SDS011;8595;52.542;11.974;2022-10-16T13:06:17;1.63;;;1.10;;
16957;SDS011;8595;52.542;11.974;2022-10-16T13:08:57;1.95;;;0.73;;
16957;SDS011;8595;52.542;11.974;2022-10-16T13:11:39;2.80;;;0.68;;
16957;SDS011;8595;52.542;11.974;2022-10-16T13:17:11;1.45;;;0.90;;
16957;SDS011;8595;52.542;11.974;2022-10-16T13:19:45;2.65;;;1.00;;
16957;SDS011;8595;52.542;11.974;2022-10-16T13:22:21;1.05;;;0.88;;
16957;SDS011;8595;52.542;11.974;2022-10-16T13:24:55;3.13;;;1.00;;
16957;SDS011;8595;52.542;11.974;2022-10-16T13:27:35;1.40;;;0.98;;
16957;SDS011;8595;52.542;11.974;2022-10-16T13:30:11;2.53;;;0.82;;
16957;SDS011;8595;52.542;11.974;2022-10-16T13:32:43;1.13;;;0.60;;
16957;SDS011;8595;52.542;11.974;2022-10-16T13:35:18;1.30;;;0.80;;
16957;SDS011;8595;52.542;11.974;2022-10-16T13:37:47;1.02;;;0.70;;
16957;SDS011;8595;52.542;11.974;2022-10-16T13:40:18;3.40;;;1.10;;
16957;SDS011;8595;52.542;11.974;2022-10-16T13:42:48;1.95;;;0.60;;
16957;SDS011;8595;52.542;11.974;2022-10-16T13:45:19;1.30;;;0.82;;
16957;SDS011;8595;52.542;11.974;2022-10-16T13:47:48;3.33;;;0.90;;
16957;SDS011;8595;52.542;11.974;2022-10-16T13:50:16;1.75;;;1.20;;
16957;SDS011;8595;52.542;11.974;2022-10-16T13:52:44;0.98;;;0.90;;
16957;SDS011;8595;52.542;11.974;2022-10-16T13:55:11;4.40;;;1.13;;
16957;SDS011;8595;52.542;11.974;2022-10-16T13:57:39;1.88;;;1.05;;
16957;SDS011;8595;52.542;11.974;2022-10-16T14:00:18;2.67;;;1.35;;
16957;SDS011;8595;52.542;11.974;2022-10-16T14:02:49;1.30;;;1.02;;
16957;SDS011;8595;52.542;11.974;2022-10-16T14:05:18;2.20;;;1.20;;
16957;SDS011;8595;52.542;11.974;2022-10-16T14:07:47;2.05;;;1.00;;
16957;SDS011;8595;52.542;11.974;2022-10-16T14:10:20;1.58;;;0.98;;
16957;SDS011;8595;52.542;11.974;2022-10-16T14:12:57;3.05;;;1.25;;
16957;SDS011;8595;52.542;11.974;2022-10-16T14:15:27;1.30;;;0.93;;
16957;SDS011;8595;52.542;11.974;2022-10-16T14:17:56;1.92;;;1.00;;
16957;SDS011;8595;52.542;11.974;2022-10-16T14:20:26;1.77;;;1.13;;
16957;SDS011;8595;52.542;11.974;2022-10-16T14:22:59;1.40;;;1.30;;
16957;SDS011;8595;52.542;11.974;2022-10-16T14:25:29;2.90;;;1.00;;
16957;SDS011;8595;52.542;11.974;2022-10-16T14:27:57;2.75;;;0.70;;
16957;SDS011;8595;52.542;11.974;2022-10-16T14:30:27;2.75;;;1.17;;
16957;SDS011;8595;52.542;11.974;2022-10-16T14:32:56;3.13;;;1.10;;
16957;SDS011;8595;52.542;11.974;2022-10-16T14:35:25;3.25;;;1.33;;
16957;SDS011;8595;52.542;11.974;2022-10-16T14:37:54;1.50;;;0.88;;
16957;SDS011;8595;52.542;11.974;2022-10-16T14:40:23;4.03;;;1.08;;
16957;SDS011;8595;52.542;11.974;2022-10-16T14:42:51;1.15;;;0.80;;
16957;SDS011;8595;52.542;11.974;2022-10-16T14:45:19;1.85;;;1.30;;
16957;SDS011;8595;52.542;11.974;2022-10-16T14:47:49;2.80;;;1.40;;
16957;SDS011;8595;52.542;11.974;2022-10-16T14:50:18;2.90;;;0.88;;
16957;SDS011;8595;52.542;11.974;2022-10-16T14:52:45;3.58;;;1.10;;
16957;SDS011;8595;52.542;11.974;2022-10-16T14:55:12;1.80;;;1.33;;
16957;SDS011;8595;52.542;11.974;2022-10-16T14:57:39;2.63;;;1.50;;
16957;SDS011;8595;52.542;11.974;2022-10-16T15:00:09;3.65;;;1.40;;
16957;SDS011;8595;52.542;11.974;2022-10-16T15:02:41;3.35;;;1.60;;
16957;SDS011;8595;52.542;11.974;2022-10-16T15:05:15;2.72;;;1.40;;
16957;SDS011;8595;52.542;11.974;2022-10-16T15:07:43;4.00;;;1.50;;
16957;SDS011;8595;52.542;11.974;2022-10-16T15:10:11;1.55;;;1.10;;
16957;SDS011;8595;52.542;11.974;2022-10-16T15:12:39;3.17;;;2.83;;
16957;SDS011;8595;52.542;11.974;2022-10-16T15:15:15;5.35;;;1.67;;
16957;SDS011;8595;52.542;11.974;2022-10-16T15:17:51;1.58;;;0.98;;
16957;SDS011;8595;52.542;11.974;2022-10-16T15:20:22;6.15;;;1.35;;